Goldsboro, North Carolina
Current Conditions -  °F | °C
As of 10:58 PM on Sunday 25 Jan 2015 (Local Time) from KGSB Reporting Station
Clear Clear  
Wind Chill: 36°   Ceiling: Unl
Heat Index: 36°   Visibility: 10mi
Dew Point: 35°   Wind: 2mph
Humidity: 99%   Direction: 120°ESE
Pressure: 29.84"   Gusts: NA
Location:  35.39°N, 77.99°W
Report Text: KGSB 260358Z AUTO 12002KT 10SM CLR 02/02 A2984 RMK AO2 SLP108 T00210019 $
Loading
Personal Weather Stations






























Interactive Weather Map New forecast layout! Learn more

10-Day Weather Forecast

Advertisements
Track Severe Weather on mobile